Main page
METAR-TAF:

METAR-TAF

Airports :

Sabzevar, Iran

Sabzevar Airport

latitude: 36-13N, longitude: 057-40E, elevation: 941 m

Current weather observation

The report was made 7 hours and 21 minutes ago, at 10:00 UTC
Wind 12 kt from the East
Temperature 37°C
Humidity 21%
Pressure 1010 hPa
Visibility 10 km or more
Few clouds at a height of 3500 ft

METAR: OIMS 231000Z 10012KT 9999 FEW035 37/11 Q1010

Time: 21:51 (17:21 UTC)


TAF: missing

Weather observations and forecasts of more than 4000 airports (METAR and TAF reports).

The available stations are represented by yellow and red dots on the map.

Hover mouse over dot to see the name of the station.

Then click to see weather observations and forecasts.

To change the map : click on the green buttons with a black cross to zoom in, on the green button with a dash to zoom out, or on the green arrows for adjacent maps.


METAR-TAF: